sensor_id;sensor_type;location;lat;lon;timestamp;temperature;humidity
19536;HTU21D;9913;51.168;4.124;2022-10-15T00:01:42;13.50;83.74
19536;HTU21D;9913;51.168;4.124;2022-10-15T00:04:12;13.52;83.55
19536;HTU21D;9913;51.168;4.124;2022-10-15T00:06:40;13.51;83.49
19536;HTU21D;9913;51.168;4.124;2022-10-15T00:09:09;13.53;83.84
19536;HTU21D;9913;51.168;4.124;2022-10-15T00:11:37;13.55;83.81
19536;HTU21D;9913;51.168;4.124;2022-10-15T00:14:06;13.53;83.33
19536;HTU21D;9913;51.168;4.124;2022-10-15T00:16:34;13.56;83.13
19536;HTU21D;9913;51.168;4.124;2022-10-15T00:19:02;13.58;83.04
19536;HTU21D;9913;51.168;4.124;2022-10-15T00:21:32;13.60;83.06
19536;HTU21D;9913;51.168;4.124;2022-10-15T00:24:00;13.59;83.52
19536;HTU21D;9913;51.168;4.124;2022-10-15T00:26:29;13.56;83.45
19536;HTU21D;9913;51.168;4.124;2022-10-15T00:28:59;13.59;83.42
19536;HTU21D;9913;51.168;4.124;2022-10-15T00:31:29;13.58;83.32
19536;HTU21D;9913;51.168;4.124;2022-10-15T00:34:00;13.59;83.53
19536;HTU21D;9913;51.168;4.124;2022-10-15T00:36:32;13.56;83.32
19536;HTU21D;9913;51.168;4.124;2022-10-15T00:39:04;13.60;83.42
19536;HTU21D;9913;51.168;4.124;2022-10-15T00:41:34;13.59;83.46
19536;HTU21D;9913;51.168;4.124;2022-10-15T00:47:13;13.56;83.65
19536;HTU21D;9913;51.168;4.124;2022-10-15T00:49:44;13.60;83.61
19536;HTU21D;9913;51.168;4.124;2022-10-15T00:52:20;13.59;83.43
19536;HTU21D;9913;51.168;4.124;2022-10-15T00:54:54;13.61;83.66
19536;HTU21D;9913;51.168;4.124;2022-10-15T00:57:24;13.59;83.54
19536;HTU21D;9913;51.168;4.124;2022-10-15T00:59:57;13.56;83.57
19536;HTU21D;9913;51.168;4.124;2022-10-15T01:02:26;13.53;83.82
19536;HTU21D;9913;51.168;4.124;2022-10-15T01:04:54;13.52;84.12
19536;HTU21D;9913;51.168;4.124;2022-10-15T01:07:24;13.51;84.40
19536;HTU21D;9913;51.168;4.124;2022-10-15T01:09:53;13.48;84.63
19536;HTU21D;9913;51.168;4.124;2022-10-15T01:12:27;13.47;84.73
19536;HTU21D;9913;51.168;4.124;2022-10-15T01:15:04;13.48;85.05
19536;HTU21D;9913;51.168;4.124;2022-10-15T01:17:40;13.45;85.20
19536;HTU21D;9913;51.168;4.124;2022-10-15T01:23:41;13.31;85.63
19536;HTU21D;9913;51.168;4.124;2022-10-15T01:26:33;13.24;85.83
19536;HTU21D;9913;51.168;4.124;2022-10-15T01:29:13;13.22;86.23
19536;HTU21D;9913;51.168;4.124;2022-10-15T01:31:51;13.20;86.47
19536;HTU21D;9913;51.168;4.124;2022-10-15T01:34:34;13.16;86.77
19536;HTU21D;9913;51.168;4.124;2022-10-15T01:37:07;13.17;86.90
19536;HTU21D;9913;51.168;4.124;2022-10-15T01:39:40;13.16;87.14
19536;HTU21D;9913;51.168;4.124;2022-10-15T01:42:14;13.10;87.28
19536;HTU21D;9913;51.168;4.124;2022-10-15T01:44:48;13.09;87.43
19536;HTU21D;9913;51.168;4.124;2022-10-15T01:47:40;13.06;87.53
19536;HTU21D;9913;51.168;4.124;2022-10-15T01:50:12;13.01;87.67
19536;HTU21D;9913;51.168;4.124;2022-10-15T01:52:43;13.04;87.96
19536;HTU21D;9913;51.168;4.124;2022-10-15T01:55:13;13.01;87.95
19536;HTU21D;9913;51.168;4.124;2022-10-15T01:57:44;12.95;88.09
19536;HTU21D;9913;51.168;4.124;2022-10-15T02:00:14;12.93;88.12
19536;HTU21D;9913;51.168;4.124;2022-10-15T02:02:44;12.88;88.09
19536;HTU21D;9913;51.168;4.124;2022-10-15T02:05:16;12.87;88.26
19536;HTU21D;9913;51.168;4.124;2022-10-15T02:07:54;12.88;88.54
19536;HTU21D;9913;51.168;4.124;2022-10-15T02:10:27;12.86;88.72
19536;HTU21D;9913;51.168;4.124;2022-10-15T02:13:03;12.81;88.67
19536;HTU21D;9913;51.168;4.124;2022-10-15T02:15:44;12.72;88.71
19536;HTU21D;9913;51.168;4.124;2022-10-15T02:18:17;12.66;88.92
19536;HTU21D;9913;51.168;4.124;2022-10-15T02:20:53;12.61;89.04
19536;HTU21D;9913;51.168;4.124;2022-10-15T02:23:27;12.62;89.31
19536;HTU21D;9913;51.168;4.124;2022-10-15T02:26:02;12.60;89.44
19536;HTU21D;9913;51.168;4.124;2022-10-15T02:28:33;12.59;89.71
19536;HTU21D;9913;51.168;4.124;2022-10-15T02:31:04;12.59;89.87
19536;HTU21D;9913;51.168;4.124;2022-10-15T02:33:35;12.57;89.73
19536;HTU21D;9913;51.168;4.124;2022-10-15T02:36:06;12.52;89.73
19536;HTU21D;9913;51.168;4.124;2022-10-15T02:38:36;12.48;89.83
19536;HTU21D;9913;51.168;4.124;2022-10-15T02:41:06;12.45;89.99
19536;HTU21D;9913;51.168;4.124;2022-10-15T02:43:36;12.47;90.21
19536;HTU21D;9913;51.168;4.124;2022-10-15T02:46:09;12.46;90.43
19536;HTU21D;9913;51.168;4.124;2022-10-15T02:48:40;12.49;90.49
19536;HTU21D;9913;51.168;4.124;2022-10-15T02:51:08;12.47;90.54
19536;HTU21D;9913;51.168;4.124;2022-10-15T02:53:37;12.43;90.58
19536;HTU21D;9913;51.168;4.124;2022-10-15T02:56:05;12.44;90.51
19536;HTU21D;9913;51.168;4.124;2022-10-15T02:58:34;12.46;90.67
19536;HTU21D;9913;51.168;4.124;2022-10-15T03:01:03;12.47;90.69
19536;HTU21D;9913;51.168;4.124;2022-10-15T03:03:32;12.47;90.79
19536;HTU21D;9913;51.168;4.124;2022-10-15T03:06:01;12.48;90.89
19536;HTU21D;9913;51.168;4.124;2022-10-15T03:08:30;12.48;90.79
19536;HTU21D;9913;51.168;4.124;2022-10-15T03:11:00;12.44;90.71
19536;HTU21D;9913;51.168;4.124;2022-10-15T03:13:29;12.40;90.68
19536;HTU21D;9913;51.168;4.124;2022-10-15T03:15:57;12.38;90.70
19536;HTU21D;9913;51.168;4.124;2022-10-15T03:18:25;12.35;90.68
19536;HTU21D;9913;51.168;4.124;2022-10-15T03:20:54;12.43;90.91
19536;HTU21D;9913;51.168;4.124;2022-10-15T03:23:25;12.40;91.09
19536;HTU21D;9913;51.168;4.124;2022-10-15T03:26:05;12.41;91.05
19536;HTU21D;9913;51.168;4.124;2022-10-15T03:28:33;12.36;90.91
19536;HTU21D;9913;51.168;4.124;2022-10-15T03:31:02;12.40;91.04
19536;HTU21D;9913;51.168;4.124;2022-10-15T03:33:30;12.38;91.12
19536;HTU21D;9913;51.168;4.124;2022-10-15T03:36:00;12.41;91.32
19536;HTU21D;9913;51.168;4.124;2022-10-15T03:38:30;12.47;91.35
19536;HTU21D;9913;51.168;4.124;2022-10-15T03:40:59;12.51;91.35
19536;HTU21D;9913;51.168;4.124;2022-10-15T03:43:30;12.51;91.27
19536;HTU21D;9913;51.168;4.124;2022-10-15T03:46:04;12.56;91.33
19536;HTU21D;9913;51.168;4.124;2022-10-15T03:48:37;12.60;91.42
19536;HTU21D;9913;51.168;4.124;2022-10-15T03:51:05;12.60;91.28
19536;HTU21D;9913;51.168;4.124;2022-10-15T03:53:35;12.62;91.06
19536;HTU21D;9913;51.168;4.124;2022-10-15T03:56:05;12.61;91.00
19536;HTU21D;9913;51.168;4.124;2022-10-15T03:58:36;12.61;91.00
19536;HTU21D;9913;51.168;4.124;2022-10-15T04:01:12;12.56;90.79
19536;HTU21D;9913;51.168;4.124;2022-10-15T04:03:41;12.50;90.64
19536;HTU21D;9913;51.168;4.124;2022-10-15T04:06:10;12.48;90.92
19536;HTU21D;9913;51.168;4.124;2022-10-15T04:08:39;12.51;91.27
19536;HTU21D;9913;51.168;4.124;2022-10-15T04:11:21;12.50;91.66
19536;HTU21D;9913;51.168;4.124;2022-10-15T04:14:00;12.57;91.94
19536;HTU21D;9913;51.168;4.124;2022-10-15T04:16:31;12.57;91.98
19536;HTU21D;9913;51.168;4.124;2022-10-15T04:19:07;12.61;92.04
19536;HTU21D;9913;51.168;4.124;2022-10-15T04:21:38;12.69;92.22
19536;HTU21D;9913;51.168;4.124;2022-10-15T04:24:14;12.72;92.14
19536;HTU21D;9913;51.168;4.124;2022-10-15T04:26:43;12.79;92.05
19536;HTU21D;9913;51.168;4.124;2022-10-15T04:29:12;12.85;91.89
19536;HTU21D;9913;51.168;4.124;2022-10-15T04:31:40;12.91;91.66
19536;HTU21D;9913;51.168;4.124;2022-10-15T04:34:09;12.93;91.08
19536;HTU21D;9913;51.168;4.124;2022-10-15T04:36:37;12.93;90.64
19536;HTU21D;9913;51.168;4.124;2022-10-15T04:39:20;12.95;90.15
19536;HTU21D;9913;51.168;4.124;2022-10-15T04:41:49;12.99;89.86
19536;HTU21D;9913;51.168;4.124;2022-10-15T04:44:24;12.96;89.32
19536;HTU21D;9913;51.168;4.124;2022-10-15T04:46:55;12.97;89.10
19536;HTU21D;9913;51.168;4.124;2022-10-15T04:49:32;12.99;89.06
19536;HTU21D;9913;51.168;4.124;2022-10-15T04:52:07;12.99;89.02
19536;HTU21D;9913;51.168;4.124;2022-10-15T04:54:43;13.01;88.95
19536;HTU21D;9913;51.168;4.124;2022-10-15T04:57:11;13.01;88.73
19536;HTU21D;9913;51.168;4.124;2022-10-15T04:59:41;13.04;88.51
19536;HTU21D;9913;51.168;4.124;2022-10-15T05:02:29;13.07;88.25
19536;HTU21D;9913;51.168;4.124;2022-10-15T05:05:17;13.05;87.73
19536;HTU21D;9913;51.168;4.124;2022-10-15T05:07:51;13.01;87.51
19536;HTU21D;9913;51.168;4.124;2022-10-15T05:10:24;13.03;87.64
19536;HTU21D;9913;51.168;4.124;2022-10-15T05:12:52;13.04;87.80
19536;HTU21D;9913;51.168;4.124;2022-10-15T05:15:29;13.04;87.89
19536;HTU21D;9913;51.168;4.124;2022-10-15T05:17:58;13.00;87.89
19536;HTU21D;9913;51.168;4.124;2022-10-15T05:20:38;13.01;87.91
19536;HTU21D;9913;51.168;4.124;2022-10-15T05:23:11;13.01;87.58
19536;HTU21D;9913;51.168;4.124;2022-10-15T05:25:44;13.00;87.42
19536;HTU21D;9913;51.168;4.124;2022-10-15T05:28:21;12.99;87.36
19536;HTU21D;9913;51.168;4.124;2022-10-15T05:30:50;13.00;87.47
19536;HTU21D;9913;51.168;4.124;2022-10-15T05:33:18;13.01;87.34
19536;HTU21D;9913;51.168;4.124;2022-10-15T05:35:47;13.02;87.12
19536;HTU21D;9913;51.168;4.124;2022-10-15T05:38:18;12.99;86.99
19536;HTU21D;9913;51.168;4.124;2022-10-15T05:40:48;12.95;86.96
19536;HTU21D;9913;51.168;4.124;2022-10-15T05:43:21;12.97;86.97
19536;HTU21D;9913;51.168;4.124;2022-10-15T05:45:52;12.93;87.04
19536;HTU21D;9913;51.168;4.124;2022-10-15T05:48:21;12.90;87.05
19536;HTU21D;9913;51.168;4.124;2022-10-15T05:50:50;12.78;87.03
19536;HTU21D;9913;51.168;4.124;2022-10-15T05:53:24;12.78;87.32
19536;HTU21D;9913;51.168;4.124;2022-10-15T05:55:58;12.77;87.38
19536;HTU21D;9913;51.168;4.124;2022-10-15T05:58:32;12.73;87.50
19536;HTU21D;9913;51.168;4.124;2022-10-15T06:01:05;12.73;87.56
19536;HTU21D;9913;51.168;4.124;2022-10-15T06:03:37;12.75;87.69
19536;HTU21D;9913;51.168;4.124;2022-10-15T06:06:15;12.73;87.70
19536;HTU21D;9913;51.168;4.124;2022-10-15T06:08:44;12.73;87.86
19536;HTU21D;9913;51.168;4.124;2022-10-15T06:11:14;12.73;87.95
19536;HTU21D;9913;51.168;4.124;2022-10-15T06:13:43;12.76;87.77
19536;HTU21D;9913;51.168;4.124;2022-10-15T06:16:14;12.76;87.67
19536;HTU21D;9913;51.168;4.124;2022-10-15T06:18:51;12.72;87.66
19536;HTU21D;9913;51.168;4.124;2022-10-15T06:21:19;12.67;87.61
19536;HTU21D;9913;51.168;4.124;2022-10-15T06:23:48;12.66;87.55
19536;HTU21D;9913;51.168;4.124;2022-10-15T06:26:18;12.71;87.66
19536;HTU21D;9913;51.168;4.124;2022-10-15T06:28:47;12.73;87.47
19536;HTU21D;9913;51.168;4.124;2022-10-15T06:31:15;12.81;87.44
19536;HTU21D;9913;51.168;4.124;2022-10-15T06:33:43;12.85;87.22
19536;HTU21D;9913;51.168;4.124;2022-10-15T06:36:12;12.90;87.24
19536;HTU21D;9913;51.168;4.124;2022-10-15T06:38:41;12.93;87.05
19536;HTU21D;9913;51.168;4.124;2022-10-15T06:41:10;13.01;86.74
19536;HTU21D;9913;51.168;4.124;2022-10-15T06:43:40;12.99;86.59
19536;HTU21D;9913;51.168;4.124;2022-10-15T06:46:08;12.96;86.80
19536;HTU21D;9913;51.168;4.124;2022-10-15T06:48:37;12.97;86.67
19536;HTU21D;9913;51.168;4.124;2022-10-15T06:51:05;12.97;86.17
19536;HTU21D;9913;51.168;4.124;2022-10-15T06:53:36;12.99;86.05
19536;HTU21D;9913;51.168;4.124;2022-10-15T06:56:07;13.02;86.05
19536;HTU21D;9913;51.168;4.124;2022-10-15T06:58:37;13.05;85.94
19536;HTU21D;9913;51.168;4.124;2022-10-15T07:01:09;13.10;85.78
19536;HTU21D;9913;51.168;4.124;2022-10-15T07:03:37;13.14;85.44
19536;HTU21D;9913;51.168;4.124;2022-10-15T07:06:07;13.17;85.29
19536;HTU21D;9913;51.168;4.124;2022-10-15T07:08:38;13.16;85.16
19536;HTU21D;9913;51.168;4.124;2022-10-15T07:11:07;13.25;85.00
19536;HTU21D;9913;51.168;4.124;2022-10-15T07:13:36;13.34;84.70
19536;HTU21D;9913;51.168;4.124;2022-10-15T07:16:05;13.46;84.34
19536;HTU21D;9913;51.168;4.124;2022-10-15T07:18:36;13.59;84.12
19536;HTU21D;9913;51.168;4.124;2022-10-15T07:21:06;13.67;83.01
19536;HTU21D;9913;51.168;4.124;2022-10-15T07:23:40;13.77;82.38
19536;HTU21D;9913;51.168;4.124;2022-10-15T07:26:08;13.76;82.49
19536;HTU21D;9913;51.168;4.124;2022-10-15T07:28:37;13.81;82.19
19536;HTU21D;9913;51.168;4.124;2022-10-15T07:31:06;13.88;82.09
19536;HTU21D;9913;51.168;4.124;2022-10-15T07:33:36;13.93;81.84
19536;HTU21D;9913;51.168;4.124;2022-10-15T07:36:07;13.95;81.61
19536;HTU21D;9913;51.168;4.124;2022-10-15T07:38:36;13.92;81.70
19536;HTU21D;9913;51.168;4.124;2022-10-15T07:41:04;14.00;81.90
19536;HTU21D;9913;51.168;4.124;2022-10-15T07:43:41;14.07;81.97
19536;HTU21D;9913;51.168;4.124;2022-10-15T07:46:09;14.06;82.39
19536;HTU21D;9913;51.168;4.124;2022-10-15T07:48:39;14.08;82.62
19536;HTU21D;9913;51.168;4.124;2022-10-15T07:51:09;14.18;82.84
19536;HTU21D;9913;51.168;4.124;2022-10-15T07:53:37;14.11;82.97
19536;HTU21D;9913;51.168;4.124;2022-10-15T07:56:09;14.09;83.31
19536;HTU21D;9913;51.168;4.124;2022-10-15T07:58:38;14.14;83.46
19536;HTU21D;9913;51.168;4.124;2022-10-15T08:01:09;14.23;83.45
19536;HTU21D;9913;51.168;4.124;2022-10-15T08:03:39;14.19;83.37
19536;HTU21D;9913;51.168;4.124;2022-10-15T08:06:07;14.21;83.52
19536;HTU21D;9913;51.168;4.124;2022-10-15T08:08:36;14.23;83.66
19536;HTU21D;9913;51.168;4.124;2022-10-15T08:11:05;14.26;83.82
19536;HTU21D;9913;51.168;4.124;2022-10-15T08:13:33;14.20;84.04
19536;HTU21D;9913;51.168;4.124;2022-10-15T08:16:01;14.24;84.44
19536;HTU21D;9913;51.168;4.124;2022-10-15T08:18:29;14.38;84.48
19536;HTU21D;9913;51.168;4.124;2022-10-15T08:21:00;14.48;84.42
19536;HTU21D;9913;51.168;4.124;2022-10-15T08:23:28;14.38;83.96
19536;HTU21D;9913;51.168;4.124;2022-10-15T08:25:57;14.38;84.52
19536;HTU21D;9913;51.168;4.124;2022-10-15T08:28:27;14.39;84.44
19536;HTU21D;9913;51.168;4.124;2022-10-15T08:30:56;14.32;84.97
19536;HTU21D;9913;51.168;4.124;2022-10-15T08:33:31;14.40;85.42
19536;HTU21D;9913;51.168;4.124;2022-10-15T08:36:02;14.42;85.27
19536;HTU21D;9913;51.168;4.124;2022-10-15T08:38:31;14.44;85.58
19536;HTU21D;9913;51.168;4.124;2022-10-15T08:41:01;14.49;85.82
19536;HTU21D;9913;51.168;4.124;2022-10-15T08:43:35;14.54;85.51
19536;HTU21D;9913;51.168;4.124;2022-10-15T08:46:15;14.60;85.39
19536;HTU21D;9913;51.168;4.124;2022-10-15T08:48:48;14.63;85.38
19536;HTU21D;9913;51.168;4.124;2022-10-15T08:51:21;14.81;85.32
19536;HTU21D;9913;51.168;4.124;2022-10-15T08:53:52;14.85;84.64
19536;HTU21D;9913;51.168;4.124;2022-10-15T08:56:26;14.82;84.52
19536;HTU21D;9913;51.168;4.124;2022-10-15T08:59:00;14.84;84.73
19536;HTU21D;9913;51.168;4.124;2022-10-15T09:01:34;14.83;84.75
19536;HTU21D;9913;51.168;4.124;2022-10-15T09:04:13;14.93;84.72
19536;HTU21D;9913;51.168;4.124;2022-10-15T09:06:45;15.00;84.31
19536;HTU21D;9913;51.168;4.124;2022-10-15T09:09:18;15.01;84.25
19536;HTU21D;9913;51.168;4.124;2022-10-15T09:11:56;15.07;84.29
19536;HTU21D;9913;51.168;4.124;2022-10-15T09:14:30;15.06;84.05
19536;HTU21D;9913;51.168;4.124;2022-10-15T09:17:03;15.07;84.23
19536;HTU21D;9913;51.168;4.124;2022-10-15T09:19:34;15.21;84.18
19536;HTU21D;9913;51.168;4.124;2022-10-15T09:22:11;15.32;83.46
19536;HTU21D;9913;51.168;4.124;2022-10-15T09:24:44;15.38;83.46
19536;HTU21D;9913;51.168;4.124;2022-10-15T09:27:19;15.31;83.04
19536;HTU21D;9913;51.168;4.124;2022-10-15T09:30:02;15.41;83.84
19536;HTU21D;9913;51.168;4.124;2022-10-15T09:32:35;15.38;83.29
19536;HTU21D;9913;51.168;4.124;2022-10-15T09:35:13;15.43;83.10
19536;HTU21D;9913;51.168;4.124;2022-10-15T09:37:49;15.51;82.89
19536;HTU21D;9913;51.168;4.124;2022-10-15T09:40:28;15.60;82.89
19536;HTU21D;9913;51.168;4.124;2022-10-15T09:43:04;15.67;82.63
19536;HTU21D;9913;51.168;4.124;2022-10-15T09:45:33;15.68;82.42
19536;HTU21D;9913;51.168;4.124;2022-10-15T09:48:04;15.77;82.23
19536;HTU21D;9913;51.168;4.124;2022-10-15T09:50:39;15.80;82.06
19536;HTU21D;9913;51.168;4.124;2022-10-15T09:53:16;15.81;81.97
19536;HTU21D;9913;51.168;4.124;2022-10-15T09:55:53;15.85;81.97
19536;HTU21D;9913;51.168;4.124;2022-10-15T09:58:29;15.88;82.06
19536;HTU21D;9913;51.168;4.124;2022-10-15T10:01:03;15.95;81.78
19536;HTU21D;9913;51.168;4.124;2022-10-15T10:03:38;16.03;81.78
19536;HTU21D;9913;51.168;4.124;2022-10-15T10:06:08;16.08;81.47
19536;HTU21D;9913;51.168;4.124;2022-10-15T10:08:50;16.12;81.10
19536;HTU21D;9913;51.168;4.124;2022-10-15T10:11:20;16.12;81.36
19536;HTU21D;9913;51.168;4.124;2022-10-15T10:13:54;16.16;81.76
19536;HTU21D;9913;51.168;4.124;2022-10-15T10:16:24;16.14;81.86
19536;HTU21D;9913;51.168;4.124;2022-10-15T10:19:05;16.10;82.24
19536;HTU21D;9913;51.168;4.124;2022-10-15T10:21:39;16.08;82.24
19536;HTU21D;9913;51.168;4.124;2022-10-15T10:24:25;16.27;82.33
19536;HTU21D;9913;51.168;4.124;2022-10-15T10:26:57;16.30;81.97
19536;HTU21D;9913;51.168;4.124;2022-10-15T10:29:26;16.34;81.33
19536;HTU21D;9913;51.168;4.124;2022-10-15T10:32:09;16.63;80.68
19536;HTU21D;9913;51.168;4.124;2022-10-15T10:34:42;16.77;79.98
19536;HTU21D;9913;51.168;4.124;2022-10-15T10:37:17;16.80;79.20
19536;HTU21D;9913;51.168;4.124;2022-10-15T10:39:51;16.74;79.04
19536;HTU21D;9913;51.168;4.124;2022-10-15T10:42:31;16.86;79.16
19536;HTU21D;9913;51.168;4.124;2022-10-15T10:45:20;16.89;79.27
19536;HTU21D;9913;51.168;4.124;2022-10-15T10:47:49;16.90;79.14
19536;HTU21D;9913;51.168;4.124;2022-10-15T10:50:30;17.02;79.20
19536;HTU21D;9913;51.168;4.124;2022-10-15T10:53:12;17.00;78.59
19536;HTU21D;9913;51.168;4.124;2022-10-15T10:55:44;17.00;78.47
19536;HTU21D;9913;51.168;4.124;2022-10-15T10:58:18;17.07;78.34
19536;HTU21D;9913;51.168;4.124;2022-10-15T11:00:53;17.05;78.50
19536;HTU21D;9913;51.168;4.124;2022-10-15T11:03:32;17.06;78.33
19536;HTU21D;9913;51.168;4.124;2022-10-15T11:06:12;17.02;78.53
19536;HTU21D;9913;51.168;4.124;2022-10-15T11:08:51;17.18;77.82
19536;HTU21D;9913;51.168;4.124;2022-10-15T11:11:28;17.26;77.53
19536;HTU21D;9913;51.168;4.124;2022-10-15T11:14:03;17.33;77.34
19536;HTU21D;9913;51.168;4.124;2022-10-15T11:16:40;17.38;77.33
19536;HTU21D;9913;51.168;4.124;2022-10-15T11:19:21;17.49;77.20
19536;HTU21D;9913;51.168;4.124;2022-10-15T11:22:28;17.63;77.11
19536;HTU21D;9913;51.168;4.124;2022-10-15T11:25:06;17.60;76.89
19536;HTU21D;9913;51.168;4.124;2022-10-15T11:27:49;17.72;77.27
19536;HTU21D;9913;51.168;4.124;2022-10-15T11:30:30;17.80;76.84
19536;HTU21D;9913;51.168;4.124;2022-10-15T11:33:14;18.13;76.76
19536;HTU21D;9913;51.168;4.124;2022-10-15T11:35:50;18.21;76.44
19536;HTU21D;9913;51.168;4.124;2022-10-15T11:38:30;18.38;76.34
19536;HTU21D;9913;51.168;4.124;2022-10-15T11:41:24;18.93;75.97
19536;HTU21D;9913;51.168;4.124;2022-10-15T11:44:08;19.30;75.97
19536;HTU21D;9913;51.168;4.124;2022-10-15T11:46:45;19.38;75.90
19536;HTU21D;9913;51.168;4.124;2022-10-15T11:49:28;19.76;75.70
19536;HTU21D;9913;51.168;4.124;2022-10-15T11:52:15;19.79;76.04
19536;HTU21D;9913;51.168;4.124;2022-10-15T11:55:01;19.46;75.16
19536;HTU21D;9913;51.168;4.124;2022-10-15T11:57:34;18.99;75.85
19536;HTU21D;9913;51.168;4.124;2022-10-15T12:00:13;18.74;75.26
19536;HTU21D;9913;51.168;4.124;2022-10-15T12:02:43;18.91;75.87
19536;HTU21D;9913;51.168;4.124;2022-10-15T12:05:17;18.83;75.58
19536;HTU21D;9913;51.168;4.124;2022-10-15T12:07:48;18.68;75.56
19536;HTU21D;9913;51.168;4.124;2022-10-15T12:10:31;18.32;76.18
19536;HTU21D;9913;51.168;4.124;2022-10-15T12:13:07;18.40;75.60
19536;HTU21D;9913;51.168;4.124;2022-10-15T12:15:43;18.49;74.35
19536;HTU21D;9913;51.168;4.124;2022-10-15T12:18:18;18.58;74.64
19536;HTU21D;9913;51.168;4.124;2022-10-15T12:20:48;18.77;73.97
19536;HTU21D;9913;51.168;4.124;2022-10-15T12:23:39;18.51;73.74
19536;HTU21D;9913;51.168;4.124;2022-10-15T12:26:28;18.39;73.55
19536;HTU21D;9913;51.168;4.124;2022-10-15T12:29:03;18.06;74.02
19536;HTU21D;9913;51.168;4.124;2022-10-15T12:31:45;18.03;73.26
19536;HTU21D;9913;51.168;4.124;2022-10-15T12:34:27;18.26;73.31
19536;HTU21D;9913;51.168;4.124;2022-10-15T12:37:02;18.24;74.06
19536;HTU21D;9913;51.168;4.124;2022-10-15T12:39:33;18.49;73.49
19536;HTU21D;9913;51.168;4.124;2022-10-15T12:42:27;18.28;72.89
19536;HTU21D;9913;51.168;4.124;2022-10-15T12:45:05;18.18;72.53
19536;HTU21D;9913;51.168;4.124;2022-10-15T12:47:47;18.12;71.65
19536;HTU21D;9913;51.168;4.124;2022-10-15T12:50:18;18.15;71.58
19536;HTU21D;9913;51.168;4.124;2022-10-15T12:52:58;18.00;72.19
19536;HTU21D;9913;51.168;4.124;2022-10-15T12:55:31;18.21;71.32
19536;HTU21D;9913;51.168;4.124;2022-10-15T12:58:10;18.34;72.18
19536;HTU21D;9913;51.168;4.124;2022-10-15T13:00:55;18.67;72.27
19536;HTU21D;9913;51.168;4.124;2022-10-15T13:03:32;18.64;71.61
19536;HTU21D;9913;51.168;4.124;2022-10-15T13:06:23;18.59;70.52
19536;HTU21D;9913;51.168;4.124;2022-10-15T13:08:54;18.54;72.00
19536;HTU21D;9913;51.168;4.124;2022-10-15T13:11:28;18.55;72.02
19536;HTU21D;9913;51.168;4.124;2022-10-15T13:14:02;18.73;71.21
19536;HTU21D;9913;51.168;4.124;2022-10-15T13:16:43;18.92;72.61
19536;HTU21D;9913;51.168;4.124;2022-10-15T13:19:17;18.76;70.09
19536;HTU21D;9913;51.168;4.124;2022-10-15T13:21:47;18.65;71.30
19536;HTU21D;9913;51.168;4.124;2022-10-15T13:24:18;18.46;70.72
19536;HTU21D;9913;51.168;4.124;2022-10-15T13:26:47;18.32;73.27
19536;HTU21D;9913;51.168;4.124;2022-10-15T13:29:17;18.26;74.16
19536;HTU21D;9913;51.168;4.124;2022-10-15T13:31:48;18.42;71.26
19536;HTU21D;9913;51.168;4.124;2022-10-15T13:34:24;18.64;72.31
19536;HTU21D;9913;51.168;4.124;2022-10-15T13:36:54;18.56;70.45
19536;HTU21D;9913;51.168;4.124;2022-10-15T13:39:28;18.40;71.06
19536;HTU21D;9913;51.168;4.124;2022-10-15T13:42:08;18.26;71.61
19536;HTU21D;9913;51.168;4.124;2022-10-15T13:44:37;18.02;71.87
19536;HTU21D;9913;51.168;4.124;2022-10-15T13:47:22;18.00;71.92
19536;HTU21D;9913;51.168;4.124;2022-10-15T13:50:15;17.88;71.11
19536;HTU21D;9913;51.168;4.124;2022-10-15T13:52:47;17.79;72.79
19536;HTU21D;9913;51.168;4.124;2022-10-15T13:55:19;17.66;72.48
19536;HTU21D;9913;51.168;4.124;2022-10-15T13:57:50;17.67;72.54
19536;HTU21D;9913;51.168;4.124;2022-10-15T14:00:26;18.09;72.16
19536;HTU21D;9913;51.168;4.124;2022-10-15T14:03:18;18.20;72.30
19536;HTU21D;9913;51.168;4.124;2022-10-15T14:05:49;18.24;71.56
19536;HTU21D;9913;51.168;4.124;2022-10-15T14:08:23;18.27;71.67
19536;HTU21D;9913;51.168;4.124;2022-10-15T14:10:53;18.54;72.11
19536;HTU21D;9913;51.168;4.124;2022-10-15T14:13:21;18.70;72.07
19536;HTU21D;9913;51.168;4.124;2022-10-15T14:15:58;18.79;72.57
19536;HTU21D;9913;51.168;4.124;2022-10-15T14:18:37;18.63;72.19
19536;HTU21D;9913;51.168;4.124;2022-10-15T14:21:10;18.56;71.13
19536;HTU21D;9913;51.168;4.124;2022-10-15T14:23:39;18.47;71.45
19536;HTU21D;9913;51.168;4.124;2022-10-15T14:26:09;18.78;71.61
19536;HTU21D;9913;51.168;4.124;2022-10-15T14:28:39;19.02;71.15
19536;HTU21D;9913;51.168;4.124;2022-10-15T14:31:08;18.81;70.31
19536;HTU21D;9913;51.168;4.124;2022-10-15T14:33:43;19.06;70.45
19536;HTU21D;9913;51.168;4.124;2022-10-15T14:36:21;18.78;71.56
19536;HTU21D;9913;51.168;4.124;2022-10-15T14:39:25;18.73;69.91
19536;HTU21D;9913;51.168;4.124;2022-10-15T14:41:55;18.62;70.23
19536;HTU21D;9913;51.168;4.124;2022-10-15T14:44:24;18.59;70.34
19536;HTU21D;9913;51.168;4.124;2022-10-15T14:47:00;18.56;71.33
19536;HTU21D;9913;51.168;4.124;2022-10-15T14:49:32;18.61;71.87
19536;HTU21D;9913;51.168;4.124;2022-10-15T14:52:04;18.71;69.43
19536;HTU21D;9913;51.168;4.124;2022-10-15T14:54:37;18.53;70.86
19536;HTU21D;9913;51.168;4.124;2022-10-15T14:57:15;18.09;71.96
19536;HTU21D;9913;51.168;4.124;2022-10-15T14:59:44;17.93;70.61
19536;HTU21D;9913;51.168;4.124;2022-10-15T15:02:14;17.79;70.98
19536;HTU21D;9913;51.168;4.124;2022-10-15T15:04:50;17.68;72.36
19536;HTU21D;9913;51.168;4.124;2022-10-15T15:07:19;17.52;70.29
19536;HTU21D;9913;51.168;4.124;2022-10-15T15:09:49;17.44;71.66
19536;HTU21D;9913;51.168;4.124;2022-10-15T15:12:20;17.44;71.64
19536;HTU21D;9913;51.168;4.124;2022-10-15T15:14:53;17.25;72.07
19536;HTU21D;9913;51.168;4.124;2022-10-15T15:17:24;17.11;72.51
19536;HTU21D;9913;51.168;4.124;2022-10-15T15:19:55;17.11;71.87
19536;HTU21D;9913;51.168;4.124;2022-10-15T15:22:27;17.06;71.02
19536;HTU21D;9913;51.168;4.124;2022-10-15T15:24:57;17.11;72.42
19536;HTU21D;9913;51.168;4.124;2022-10-15T15:27:28;17.11;72.53
19536;HTU21D;9913;51.168;4.124;2022-10-15T15:29:57;17.11;73.04
19536;HTU21D;9913;51.168;4.124;2022-10-15T15:32:25;17.28;71.87
19536;HTU21D;9913;51.168;4.124;2022-10-15T15:34:55;17.33;71.69
19536;HTU21D;9913;51.168;4.124;2022-10-15T15:37:25;17.33;72.66
19536;HTU21D;9913;51.168;4.124;2022-10-15T15:39:56;17.20;71.46
19536;HTU21D;9913;51.168;4.124;2022-10-15T15:42:25;17.07;71.77
19536;HTU21D;9913;51.168;4.124;2022-10-15T15:44:53;16.99;71.46
19536;HTU21D;9913;51.168;4.124;2022-10-15T15:47:22;16.84;71.60
19536;HTU21D;9913;51.168;4.124;2022-10-15T15:49:50;16.70;72.54
19536;HTU21D;9913;51.168;4.124;2022-10-15T15:52:19;16.70;72.36
19536;HTU21D;9913;51.168;4.124;2022-10-15T15:54:48;16.58;72.16
19536;HTU21D;9913;51.168;4.124;2022-10-15T15:57:16;16.64;72.07
19536;HTU21D;9913;51.168;4.124;2022-10-15T15:59:45;16.61;72.68
19536;HTU21D;9913;51.168;4.124;2022-10-15T16:02:13;16.54;72.99
19536;HTU21D;9913;51.168;4.124;2022-10-15T16:04:44;16.43;73.03
19536;HTU21D;9913;51.168;4.124;2022-10-15T16:07:14;16.49;72.11
19536;HTU21D;9913;51.168;4.124;2022-10-15T16:09:46;16.50;71.85
19536;HTU21D;9913;51.168;4.124;2022-10-15T16:12:15;16.42;72.62
19536;HTU21D;9913;51.168;4.124;2022-10-15T16:14:43;16.32;72.37